Time;durP1;ratioP1;P1;durP2;ratioP2;P2;SDS_P1;SDS_P2;PMS_P1;PMS_P2;Temp;Humidity;BMP_temperature;BMP_pressure;BME280_temperature;BME280_humidity;BME280_pressure;Samples;Min_cycle;Max_cycle;Signal;HPM_P1;HPM_P2
2022/01/26 00:00:55;;;;;;;;;;;-7.90;99.90;;;;;;4156593;28;19917;-50
2022/01/26 00:07:34;;;;;;;;;;;-7.90;99.90;;;;;;4160964;28;19987;-54
2022/01/26 00:09:35;;;;;;;;;;;-7.90;99.90;;;;;;4160282;28;20008;-56
2022/01/26 00:11:37;;;;;;;;;;;-7.90;99.90;;;;;;4161667;28;20357;-56
2022/01/26 00:13:38;;;;;;;;;;;-7.90;99.90;;;;;;4158976;28;19913;-54
2022/01/26 00:15:39;;;;;;;;;;;-8.00;99.90;;;;;;4162057;28;20015;-56
2022/01/26 00:17:40;;;;;;;;;;;-7.90;99.90;;;;;;4159405;28;19921;-53
2022/01/26 00:20:00;;;;;;;;;;;-7.90;99.90;;;;;;4160180;28;19975;-55
2022/01/26 00:22:01;;;;;;;;;;;-7.90;99.90;;;;;;4143987;28;19917;-62
2022/01/26 00:26:22;;;;;;;;;;;-7.90;99.90;;;;;;4160231;28;20353;-60
2022/01/26 00:28:46;;;;;;;;;;;-7.90;99.90;;;;;;4160756;28;19917;-54
2022/01/26 00:40:13;;;;;;;;;;;-8.00;99.90;;;;;;4143742;28;19975;-54
2022/01/26 00:42:14;;;;;;;;;;;-8.00;99.90;;;;;;4160892;28;19917;-54
2022/01/26 00:44:15;;;;;;;;;;;-8.00;99.90;;;;;;4159061;28;20353;-54
2022/01/26 00:46:16;;;;;;;;;;;-8.00;99.90;;;;;;4160188;28;19967;-57
2022/01/26 00:48:20;;;;;;;;;;;-8.00;99.90;;;;;;4158976;28;19929;-55
2022/01/26 00:50:22;;;;;;;;;;;-8.00;99.90;;;;;;4161115;28;20321;-52
2022/01/26 00:52:26;;;;;;;;;;;-8.00;99.90;;;;;;4159211;28;19917;-54
2022/01/26 00:54:27;;;;;;;;;;;-7.90;99.90;;;;;;4160192;28;19975;-56
2022/01/26 00:56:28;;;;;;;;;;;-7.90;99.90;;;;;;4159399;28;19924;-57
2022/01/26 00:58:30;;;;;;;;;;;-7.90;99.90;;;;;;4159757;28;19925;-55
2022/01/26 01:00:31;;;;;;;;;;;-7.90;99.90;;;;;;4158804;28;19917;-52
2022/01/26 01:02:33;;;;;;;;;;;-7.90;99.90;;;;;;4159874;28;20015;-55
2022/01/26 01:04:34;;;;;;;;;;;-7.90;99.90;;;;;;4159751;28;19954;-54
2022/01/26 01:06:44;;;;;;;;;;;-7.90;99.90;;;;;;4159413;28;19947;-55
2022/01/26 01:08:46;;;;;;;;;;;-7.90;99.90;;;;;;4160496;28;20671;-60
2022/01/26 01:10:49;;;;;;;;;;;-7.90;99.90;;;;;;4158585;28;20344;-54
2022/01/26 01:12:54;;;;;;;;;;;-7.90;99.90;;;;;;4160682;28;19913;-53
2022/01/26 01:14:55;;;;;;;;;;;-7.90;99.90;;;;;;4158782;28;19921;-55
2022/01/26 01:17:00;;;;;;;;;;;-7.80;99.90;;;;;;4159757;28;19917;-54
2022/01/26 01:19:17;;;;;;;;;;;-7.80;99.90;;;;;;4159236;28;19921;-52
2022/01/26 01:28:09;;;;;;;;;;;-7.80;99.90;;;;;;4158813;28;20312;-57
2022/01/26 01:30:25;;;;;;;;;;;-7.80;99.90;;;;;;4159696;28;20511;-55
2022/01/26 01:32:38;;;;;;;;;;;-7.80;99.90;;;;;;4157614;28;19917;-54
2022/01/26 01:34:40;;;;;;;;;;;-7.80;99.90;;;;;;4159870;28;19984;-56
2022/01/26 01:36:43;;;;;;;;;;;-7.70;99.90;;;;;;4158662;28;19979;-53
2022/01/26 01:38:44;;;;;;;;;;;-7.70;99.90;;;;;;4159661;28;19929;-51
2022/01/26 01:40:49;;;;;;;;;;;-7.80;99.90;;;;;;4157786;28;19929;-52
2022/01/26 01:42:50;;;;;;;;;;;-7.80;99.90;;;;;;4160130;28;19921;-50
2022/01/26 01:44:51;;;;;;;;;;;-7.80;99.90;;;;;;4158126;28;20296;-52
2022/01/26 01:46:53;;;;;;;;;;;-7.80;99.90;;;;;;4159585;28;19928;-52
2022/01/26 01:48:53;;;;;;;;;;;-7.80;99.90;;;;;;4158571;28;19913;-53
2022/01/26 01:50:57;;;;;;;;;;;-7.80;99.90;;;;;;4159163;28;20001;-51
2022/01/26 01:53:02;;;;;;;;;;;-7.70;99.90;;;;;;4157919;28;19963;-54
2022/01/26 01:55:04;;;;;;;;;;;-7.80;99.90;;;;;;4159841;28;19971;-55
2022/01/26 01:57:06;;;;;;;;;;;-7.80;99.90;;;;;;4158460;28;20395;-53
2022/01/26 01:59:06;;;;;;;;;;;-7.70;99.90;;;;;;4159017;28;19921;-53
2022/01/26 02:01:08;;;;;;;;;;;-7.70;99.90;;;;;;4159219;28;19971;-53
2022/01/26 02:03:09;;;;;;;;;;;-7.70;99.90;;;;;;4158151;28;19917;-51
2022/01/26 02:05:10;;;;;;;;;;;-7.70;99.90;;;;;;4158223;28;19967;-54
2022/01/26 02:07:11;;;;;;;;;;;-7.70;99.90;;;;;;4157887;28;19986;-54
2022/01/26 02:09:12;;;;;;;;;;;-7.70;99.90;;;;;;4159096;28;19921;-53
2022/01/26 02:11:14;;;;;;;;;;;-7.70;99.90;;;;;;4158113;28;20419;-56
2022/01/26 02:13:25;;;;;;;;;;;-7.70;99.90;;;;;;4159126;28;19921;-50
2022/01/26 02:15:41;;;;;;;;;;;-7.60;99.90;;;;;;4157783;28;19917;-50
2022/01/26 02:20:31;;;;;;;;;;;-7.60;99.90;;;;;;4158056;28;19925;-51
2022/01/26 02:51:09;;;;;;;;;;;-7.50;99.90;;;;;;4158049;28;20431;-52
2022/01/26 02:53:24;;;;;;;;;;;-7.40;99.90;;;;;;4157360;28;19959;-51
2022/01/26 02:58:11;;;;;;;;;;;-7.30;99.90;;;;;;4157187;28;19927;-53
2022/01/26 03:00:23;;;;;;;;;;;-7.30;99.90;;;;;;4157655;28;19979;-53
2022/01/26 03:05:00;;;;;;;;;;;-7.30;99.90;;;;;;4125060;28;19967;-53
2022/01/26 03:07:09;;;;;;;;;;;-7.30;99.90;;;;;;4157616;28;19913;-54
2022/01/26 03:09:14;;;;;;;;;;;-7.20;99.90;;;;;;4157787;28;19913;-61
2022/01/26 03:11:15;;;;;;;;;;;-7.20;99.90;;;;;;4142081;28;19921;-52
2022/01/26 03:13:22;;;;;;;;;;;-7.20;99.90;;;;;;4156581;28;19913;-53
2022/01/26 03:15:29;;;;;;;;;;;-7.10;99.90;;;;;;4156373;28;20833;-55
2022/01/26 03:17:50;;;;;;;;;;;-7.10;99.90;;;;;;4157823;28;20012;-56
2022/01/26 03:19:54;;;;;;;;;;;-7.10;99.90;;;;;;4156662;28;19943;-54
2022/01/26 03:28:58;;;;;;;;;;;-7.10;99.90;;;;;;4157125;28;20419;-52
2022/01/26 03:36:17;;;;;;;;;;;-7.10;99.90;;;;;;4158277;28;20735;-56
2022/01/26 03:37:59;;;;;;;;;;;-7.10;99.90;;;;;;4148669;28;20016;-54
2022/01/26 03:40:03;;;;;;;;;;;-7.10;99.90;;;;;;4157452;28;19921;-54
2022/01/26 03:42:05;;;;;;;;;;;-7.10;99.90;;;;;;4152120;28;19921;-61
2022/01/26 03:44:07;;;;;;;;;;;-7.10;99.90;;;;;;4157813;28;19909;-53
2022/01/26 03:46:08;;;;;;;;;;;-7.00;99.90;;;;;;4156701;28;19951;-54
2022/01/26 03:48:09;;;;;;;;;;;-7.00;99.90;;;;;;4140303;28;20627;-54
2022/01/26 03:50:10;;;;;;;;;;;-7.00;99.90;;;;;;4156362;28;19917;-54
2022/01/26 03:52:11;;;;;;;;;;;-7.00;99.90;;;;;;4157812;28;19917;-54
2022/01/26 03:54:12;;;;;;;;;;;-7.00;99.90;;;;;;4156774;28;19917;-53
2022/01/26 03:56:13;;;;;;;;;;;-6.90;99.90;;;;;;4158293;28;19917;-56
2022/01/26 03:58:14;;;;;;;;;;;-6.90;99.90;;;;;;4156365;28;19913;-51
2022/01/26 04:00:17;;;;;;;;;;;-6.90;99.90;;;;;;4157482;28;19932;-53
2022/01/26 04:02:18;;;;;;;;;;;-6.90;99.90;;;;;;4156716;28;19917;-53
2022/01/26 04:04:19;;;;;;;;;;;-6.90;99.90;;;;;;4156872;28;19917;-54
2022/01/26 04:06:20;;;;;;;;;;;-6.90;99.90;;;;;;4157091;28;19955;-57
2022/01/26 04:08:28;;;;;;;;;;;-6.90;99.90;;;;;;4156531;28;19917;-55
2022/01/26 04:10:46;;;;;;;;;;;-6.90;99.90;;;;;;4157065;28;19921;-53
2022/01/26 04:12:47;;;;;;;;;;;-6.90;99.90;;;;;;4156876;28;19917;-53
2022/01/26 04:14:54;;;;;;;;;;;-6.80;99.90;;;;;;4156630;28;19971;-51
2022/01/26 04:16:55;;;;;;;;;;;-6.80;99.90;;;;;;4153324;28;19917;-54
2022/01/26 04:18:57;;;;;;;;;;;-6.80;99.90;;;;;;4157292;28;19950;-54
2022/01/26 04:21:02;;;;;;;;;;;-6.80;99.90;;;;;;4155648;28;19918;-58
2022/01/26 04:23:19;;;;;;;;;;;-6.80;99.90;;;;;;4157181;28;19964;-51
2022/01/26 04:25:23;;;;;;;;;;;-6.80;99.90;;;;;;4156581;28;19928;-55
2022/01/26 04:27:37;;;;;;;;;;;-6.90;99.90;;;;;;4157520;28;19913;-57
2022/01/26 04:29:38;;;;;;;;;;;-6.90;99.90;;;;;;4156381;28;19951;-55
2022/01/26 04:31:39;;;;;;;;;;;-6.80;99.90;;;;;;4157581;28;20752;-54
2022/01/26 04:33:40;;;;;;;;;;;-6.80;99.90;;;;;;4156403;28;19948;-56
2022/01/26 04:35:44;;;;;;;;;;;-6.80;99.90;;;;;;4157530;28;19914;-52
2022/01/26 04:38:11;;;;;;;;;;;-6.80;99.90;;;;;;4155821;28;20312;-55
2022/01/26 04:40:09;;;;;;;;;;;-6.80;99.90;;;;;;4157010;28;19925;-54
2022/01/26 04:42:16;;;;;;;;;;;-6.80;99.90;;;;;;4155514;28;19917;-58
2022/01/26 04:44:27;;;;;;;;;;;-6.80;99.90;;;;;;4141790;28;20036;-53
2022/01/26 04:46:28;;;;;;;;;;;-6.80;99.90;;;;;;4139091;28;19913;-54
2022/01/26 04:48:29;;;;;;;;;;;-6.80;99.90;;;;;;4156705;28;19975;-53
2022/01/26 04:50:30;;;;;;;;;;;-6.70;99.90;;;;;;4157214;28;19917;-51
2022/01/26 04:52:31;;;;;;;;;;;-6.70;99.90;;;;;;4159279;28;19921;-52
2022/01/26 04:54:32;;;;;;;;;;;-6.70;99.90;;;;;;4158961;28;19964;-52
2022/01/26 04:56:33;;;;;;;;;;;-6.60;99.90;;;;;;4159939;28;20523;-56
2022/01/26 04:58:34;;;;;;;;;;;-6.60;99.90;;;;;;4159734;28;19913;-52
2022/01/26 05:00:35;;;;;;;;;;;-6.60;99.90;;;;;;4159221;28;19921;-56
2022/01/26 05:02:36;;;;;;;;;;;-6.70;99.90;;;;;;4159703;28;19917;-52
2022/01/26 05:04:37;;;;;;;;;;;-6.70;99.90;;;;;;4158932;28;19916;-57
2022/01/26 05:06:38;;;;;;;;;;;-6.70;99.90;;;;;;4159594;28;19917;-53
2022/01/26 05:08:39;;;;;;;;;;;-6.70;99.90;;;;;;4158301;28;19979;-52
2022/01/26 05:10:43;;;;;;;;;;;-6.60;99.90;;;;;;4159658;28;19913;-55
2022/01/26 05:12:44;;;;;;;;;;;-6.60;99.90;;;;;;4159312;28;19987;-61
2022/01/26 05:14:47;;;;;;;;;;;-6.60;99.90;;;;;;4159858;28;19975;-55
2022/01/26 05:16:48;;;;;;;;;;;-6.50;99.90;;;;;;4158642;28;20429;-56
2022/01/26 05:18:50;;;;;;;;;;;-6.50;99.90;;;;;;4159620;28;19913;-57
2022/01/26 05:20:51;;;;;;;;;;;-6.40;99.90;;;;;;4158713;28;19983;-51
2022/01/26 05:22:52;;;;;;;;;;;-6.40;99.90;;;;;;4159201;28;20361;-53
2022/01/26 05:24:53;;;;;;;;;;;-6.40;99.90;;;;;;4158270;28;19917;-57
2022/01/26 05:26:54;;;;;;;;;;;-6.40;99.90;;;;;;4158767;28;19917;-53
2022/01/26 05:28:54;;;;;;;;;;;-6.40;99.90;;;;;;4158328;28;19917;-54
2022/01/26 05:30:55;;;;;;;;;;;-6.40;99.90;;;;;;4158970;28;19913;-59
2022/01/26 05:32:56;;;;;;;;;;;-6.40;99.90;;;;;;4159253;28;20366;-53
2022/01/26 05:34:57;;;;;;;;;;;-6.40;99.90;;;;;;4159010;28;19917;-56
2022/01/26 05:36:58;;;;;;;;;;;-6.50;99.90;;;;;;4158575;28;20340;-53
2022/01/26 05:38:59;;;;;;;;;;;-6.50;99.90;;;;;;4157742;28;19940;-54
2022/01/26 05:41:02;;;;;;;;;;;-6.50;99.90;;;;;;4159208;28;19940;-54
2022/01/26 05:43:03;;;;;;;;;;;-6.50;99.90;;;;;;4158166;28;19921;-53
2022/01/26 05:45:07;;;;;;;;;;;-6.50;99.90;;;;;;4159675;28;21150;-52
2022/01/26 05:47:13;;;;;;;;;;;-6.50;99.90;;;;;;4157761;28;19925;-52
2022/01/26 05:49:17;;;;;;;;;;;-6.50;99.90;;;;;;4159239;28;19921;-55
2022/01/26 05:51:18;;;;;;;;;;;-6.50;99.90;;;;;;4157018;28;19917;-57
2022/01/26 05:53:21;;;;;;;;;;;-6.60;99.90;;;;;;4158972;28;19912;-55
2022/01/26 05:55:22;;;;;;;;;;;-6.60;99.90;;;;;;4158114;28;19917;-54
2022/01/26 05:57:23;;;;;;;;;;;-6.50;99.90;;;;;;4158730;28;20324;-58
2022/01/26 05:59:24;;;;;;;;;;;-6.50;99.90;;;;;;4156758;28;19921;-60
2022/01/26 06:01:25;;;;;;;;;;;-6.50;99.90;;;;;;4156029;28;20293;-52
2022/01/26 06:03:26;;;;;;;;;;;-6.50;99.90;;;;;;4156804;28;19966;-55
2022/01/26 06:05:27;;;;;;;;;;;-6.50;99.90;;;;;;4158698;28;19917;-56
2022/01/26 06:07:28;;;;;;;;;;;-6.50;99.90;;;;;;4144185;28;19924;-54
2022/01/26 06:09:29;;;;;;;;;;;-6.40;99.90;;;;;;4141979;28;19918;-58
2022/01/26 06:11:30;;;;;;;;;;;-6.40;99.90;;;;;;4154108;28;19921;-60
2022/01/26 06:13:31;;;;;;;;;;;-6.40;99.90;;;;;;4157662;28;19924;-59
2022/01/26 06:15:32;;;;;;;;;;;-6.40;99.90;;;;;;4159032;28;19960;-56
2022/01/26 06:17:33;;;;;;;;;;;-6.40;99.90;;;;;;4157161;28;19920;-59
2022/01/26 06:19:34;;;;;;;;;;;-6.40;99.90;;;;;;4151124;28;19925;-58
2022/01/26 06:21:35;;;;;;;;;;;-6.30;99.90;;;;;;4153825;28;20377;-53
2022/01/26 06:23:36;;;;;;;;;;;-6.30;99.90;;;;;;4158450;28;19924;-57
2022/01/26 06:25:37;;;;;;;;;;;-6.30;99.90;;;;;;4157523;28;19917;-56
2022/01/26 06:27:38;;;;;;;;;;;-6.30;99.90;;;;;;4158061;28;19917;-56
2022/01/26 06:29:39;;;;;;;;;;;-6.20;99.90;;;;;;4157542;28;19917;-55
2022/01/26 06:31:42;;;;;;;;;;;-6.20;99.90;;;;;;4158615;28;19917;-54
2022/01/26 06:33:43;;;;;;;;;;;-6.20;99.90;;;;;;4157372;28;19975;-56
2022/01/26 06:35:44;;;;;;;;;;;-6.20;99.90;;;;;;4156887;28;19956;-57
2022/01/26 06:37:45;;;;;;;;;;;-6.20;99.90;;;;;;4156130;28;19921;-57
2022/01/26 06:39:46;;;;;;;;;;;-6.20;99.90;;;;;;4157945;28;19921;-55
2022/01/26 06:41:51;;;;;;;;;;;-6.20;99.90;;;;;;4158262;28;19928;-55
2022/01/26 06:44:13;;;;;;;;;;;-6.10;99.90;;;;;;4157944;28;19959;-52
2022/01/26 06:46:21;;;;;;;;;;;-6.20;99.90;;;;;;4157712;28;19917;-56
2022/01/26 06:50:32;;;;;;;;;;;-6.10;99.90;;;;;;4157680;28;20015;-56
2022/01/26 06:52:33;;;;;;;;;;;-6.00;99.90;;;;;;4156725;28;20628;-53
2022/01/26 06:54:33;;;;;;;;;;;-5.90;99.90;;;;;;4157441;28;19924;-57
2022/01/26 06:56:34;;;;;;;;;;;-5.90;99.90;;;;;;4157561;28;19913;-57
2022/01/26 06:58:35;;;;;;;;;;;-5.90;99.90;;;;;;4158677;28;19913;-56
2022/01/26 07:00:36;;;;;;;;;;;-5.90;99.90;;;;;;4156899;28;20361;-57
2022/01/26 07:02:39;;;;;;;;;;;-5.90;99.90;;;;;;4157393;28;19917;-52
2022/01/26 07:04:40;;;;;;;;;;;-5.80;99.90;;;;;;4156899;28;19971;-57
2022/01/26 07:06:40;;;;;;;;;;;-5.80;99.90;;;;;;4157627;28;19913;-55
2022/01/26 07:08:42;;;;;;;;;;;-5.70;99.90;;;;;;4156502;28;19993;-58
2022/01/26 07:10:45;;;;;;;;;;;-5.70;99.90;;;;;;4150623;28;19987;-56
2022/01/26 07:12:46;;;;;;;;;;;-5.70;99.90;;;;;;4151800;28;19917;-55
2022/01/26 07:21:45;;;;;;;;;;;-5.50;99.90;;;;;;4156614;28;20541;-58
2022/01/26 07:23:46;;;;;;;;;;;-5.40;99.90;;;;;;4157995;28;19917;-54
2022/01/26 07:25:47;;;;;;;;;;;-5.40;99.90;;;;;;4156490;28;19983;-57
2022/01/26 07:27:49;;;;;;;;;;;-5.40;99.90;;;;;;4157033;28;20697;-61
2022/01/26 07:29:50;;;;;;;;;;;-5.40;99.90;;;;;;4155251;28;19913;-55
2022/01/26 07:31:51;;;;;;;;;;;-5.40;99.90;;;;;;4156847;28;19983;-57
2022/01/26 07:33:57;;;;;;;;;;;-5.50;99.90;;;;;;4157307;28;19955;-57
2022/01/26 07:35:58;;;;;;;;;;;-5.50;99.90;;;;;;4155594;28;20732;-59
2022/01/26 07:38:01;;;;;;;;;;;-5.50;99.90;;;;;;4145618;28;19917;-55
2022/01/26 07:40:09;;;;;;;;;;;-5.60;99.90;;;;;;4156099;28;20377;-55
2022/01/26 07:42:10;;;;;;;;;;;-5.50;99.90;;;;;;4157121;28;19909;-54
2022/01/26 07:44:11;;;;;;;;;;;-5.50;99.90;;;;;;4156702;28;20701;-61
2022/01/26 07:46:12;;;;;;;;;;;-5.40;99.90;;;;;;4156887;28;19910;-56
2022/01/26 07:48:13;;;;;;;;;;;-5.40;99.90;;;;;;4155228;28;19924;-56
2022/01/26 07:50:15;;;;;;;;;;;-5.30;99.90;;;;;;4156608;28;20369;-54
2022/01/26 07:52:16;;;;;;;;;;;-5.30;99.90;;;;;;4156233;28;19977;-55
2022/01/26 07:54:18;;;;;;;;;;;-5.30;99.90;;;;;;4157228;28;19917;-56
2022/01/26 07:56:19;;;;;;;;;;;-5.20;99.90;;;;;;4155599;28;19971;-51
2022/01/26 07:58:21;;;;;;;;;;;-5.20;99.90;;;;;;4156652;28;19956;-56
2022/01/26 08:00:22;;;;;;;;;;;-5.10;99.90;;;;;;4155145;28;20078;-54
2022/01/26 08:02:23;;;;;;;;;;;-5.10;99.90;;;;;;4139159;28;19917;-55
2022/01/26 08:04:24;;;;;;;;;;;-5.00;99.90;;;;;;4156519;28;19913;-56
2022/01/26 08:06:25;;;;;;;;;;;-5.00;99.90;;;;;;4152598;28;19918;-59
2022/01/26 08:08:27;;;;;;;;;;;-4.90;99.90;;;;;;4153920;28;20361;-57
2022/01/26 08:10:27;;;;;;;;;;;-4.90;99.90;;;;;;4157414;28;20000;-51
2022/01/26 08:12:30;;;;;;;;;;;-4.80;99.90;;;;;;4157413;28;20016;-56
2022/01/26 08:14:31;;;;;;;;;;;-4.70;99.90;;;;;;4156660;28;20328;-58
2022/01/26 08:16:31;;;;;;;;;;;-4.70;99.90;;;;;;4157419;28;19917;-59
2022/01/26 08:18:32;;;;;;;;;;;-4.70;99.90;;;;;;4154824;28;20328;-53
2022/01/26 08:20:33;;;;;;;;;;;-4.60;99.90;;;;;;4146131;28;19968;-55
2022/01/26 08:22:35;;;;;;;;;;;-4.60;99.90;;;;;;4156973;28;19961;-56
2022/01/26 08:24:37;;;;;;;;;;;-4.50;99.90;;;;;;4157397;28;19913;-56
2022/01/26 08:26:41;;;;;;;;;;;-4.50;99.90;;;;;;4158321;28;19955;-55
2022/01/26 08:28:46;;;;;;;;;;;-4.40;99.90;;;;;;4160781;28;19962;-53
2022/01/26 08:30:47;;;;;;;;;;;-4.40;99.90;;;;;;4158090;28;19937;-55
2022/01/26 08:32:48;;;;;;;;;;;-4.40;99.90;;;;;;4160977;28;20370;-57
2022/01/26 08:34:49;;;;;;;;;;;-4.40;99.90;;;;;;4159268;28;19971;-55
2022/01/26 08:36:50;;;;;;;;;;;-4.50;99.90;;;;;;4158718;28;20330;-52
2022/01/26 08:38:51;;;;;;;;;;;-4.50;99.90;;;;;;4159444;28;20423;-56
2022/01/26 08:40:52;;;;;;;;;;;-4.50;99.90;;;;;;4154594;28;19936;-54
2022/01/26 08:42:54;;;;;;;;;;;-4.50;99.90;;;;;;4141840;28;19940;-56
2022/01/26 08:44:55;;;;;;;;;;;-4.40;99.90;;;;;;4159849;28;19909;-59
2022/01/26 08:46:56;;;;;;;;;;;-4.40;99.90;;;;;;4159493;28;20328;-58
2022/01/26 08:48:57;;;;;;;;;;;-4.40;99.90;;;;;;4159120;28;19913;-56
2022/01/26 08:50:58;;;;;;;;;;;-4.40;99.90;;;;;;4160027;28;19947;-55
2022/01/26 08:52:59;;;;;;;;;;;-4.40;99.90;;;;;;4159261;28;20256;-54
2022/01/26 08:55:01;;;;;;;;;;;-4.40;99.90;;;;;;4159672;28;19925;-56
2022/01/26 08:57:02;;;;;;;;;;;-4.40;99.90;;;;;;4158853;28;19972;-56
2022/01/26 08:59:03;;;;;;;;;;;-4.40;99.90;;;;;;4160139;28;19917;-57
2022/01/26 09:01:04;;;;;;;;;;;-4.30;99.90;;;;;;4163117;28;19925;-57
2022/01/26 09:03:05;;;;;;;;;;;-4.30;99.90;;;;;;4177051;28;19913;-51
2022/01/26 09:05:08;;;;;;;;;;;-4.20;99.90;;;;;;4169046;28;19913;-57
2022/01/26 09:07:14;;;;;;;;;;;-4.10;99.90;;;;;;4158876;28;19913;-56
2022/01/26 09:09:15;;;;;;;;;;;-4.10;99.90;;;;;;4159198;28;19956;-58
2022/01/26 09:11:21;;;;;;;;;;;-4.10;99.90;;;;;;4158206;28;20357;-58
2022/01/26 09:13:22;;;;;;;;;;;-4.10;99.90;;;;;;4165335;28;20354;-56
2022/01/26 09:15:27;;;;;;;;;;;-4.10;99.90;;;;;;4175887;28;19913;-56
2022/01/26 09:17:31;;;;;;;;;;;-4.10;99.90;;;;;;4176670;28;20331;-51
2022/01/26 09:19:33;;;;;;;;;;;-4.10;99.90;;;;;;4175513;28;20434;-52
2022/01/26 09:21:35;;;;;;;;;;;-4.10;99.90;;;;;;4176096;28;19920;-54
2022/01/26 09:23:36;;;;;;;;;;;-4.20;99.90;;;;;;4175101;28;19912;-56
2022/01/26 09:25:37;;;;;;;;;;;-4.20;99.90;;;;;;4176265;28;19913;-52
2022/01/26 09:27:38;;;;;;;;;;;-4.30;99.90;;;;;;4174733;28;20473;-59
2022/01/26 09:29:39;;;;;;;;;;;-4.30;99.90;;;;;;4172226;28;19917;-57
2022/01/26 09:31:40;;;;;;;;;;;-4.30;99.90;;;;;;4158562;28;19920;-58
2022/01/26 09:33:40;;;;;;;;;;;-4.30;99.90;;;;;;4159703;28;19913;-58
2022/01/26 09:35:41;;;;;;;;;;;-4.30;99.90;;;;;;4158062;28;19917;-57
2022/01/26 09:37:43;;;;;;;;;;;-4.40;99.90;;;;;;4157778;28;19942;-56
2022/01/26 09:39:45;;;;;;;;;;;-4.40;99.90;;;;;;4158077;28;19917;-55
2022/01/26 09:41:48;;;;;;;;;;;-4.40;99.90;;;;;;4158316;28;19913;-56
2022/01/26 09:43:49;;;;;;;;;;;-4.40;99.90;;;;;;4159424;28;19983;-55
2022/01/26 09:45:50;;;;;;;;;;;-4.30;99.90;;;;;;4158542;28;19920;-56
2022/01/26 09:47:51;;;;;;;;;;;-4.30;99.90;;;;;;4158148;28;19924;-56
2022/01/26 09:49:52;;;;;;;;;;;-4.30;99.90;;;;;;4158564;28;19917;-57
2022/01/26 09:51:53;;;;;;;;;;;-4.30;99.90;;;;;;4141191;28;19924;-60
2022/01/26 09:54:04;;;;;;;;;;;-4.30;99.90;;;;;;4158151;28;19916;-57
2022/01/26 09:56:05;;;;;;;;;;;-4.20;99.90;;;;;;4158585;28;19921;-58
2022/01/26 09:58:06;;;;;;;;;;;-4.20;99.90;;;;;;4160338;28;20565;-58
2022/01/26 10:00:07;;;;;;;;;;;-4.20;99.90;;;;;;4157627;28;20340;-53
2022/01/26 10:02:19;;;;;;;;;;;-4.20;99.90;;;;;;4155682;28;19917;-54
2022/01/26 10:04:46;;;;;;;;;;;-4.20;99.90;;;;;;4168607;28;19912;-55
2022/01/26 10:07:12;;;;;;;;;;;-4.10;99.90;;;;;;4171099;28;19912;-54
2022/01/26 10:09:47;;;;;;;;;;;-4.10;99.90;;;;;;4142667;28;19921;-51
2022/01/26 10:17:13;;;;;;;;;;;-4.00;99.90;;;;;;4159139;28;19959;-58
2022/01/26 10:18:57;;;;;;;;;;;-4.00;99.90;;;;;;4157354;28;20411;-57
2022/01/26 10:20:59;;;;;;;;;;;-3.90;99.90;;;;;;4157918;28;19929;-58
2022/01/26 10:23:13;;;;;;;;;;;-3.90;99.90;;;;;;4157431;28;19909;-56
2022/01/26 10:25:15;;;;;;;;;;;-3.80;99.90;;;;;;4157431;28;19960;-54
2022/01/26 10:27:16;;;;;;;;;;;-3.80;99.90;;;;;;4139486;28;19913;-59
2022/01/26 10:29:17;;;;;;;;;;;-3.70;99.90;;;;;;4139655;28;20396;-54
2022/01/26 10:31:28;;;;;;;;;;;-3.70;99.90;;;;;;4157843;28;20692;-58
2022/01/26 10:33:29;;;;;;;;;;;-3.60;99.90;;;;;;4156981;28;20389;-59
2022/01/26 10:35:30;;;;;;;;;;;-3.60;99.90;;;;;;4157929;28;19913;-53
2022/01/26 10:37:32;;;;;;;;;;;-3.60;99.90;;;;;;4157242;28;20519;-56
2022/01/26 10:39:42;;;;;;;;;;;-3.70;99.90;;;;;;4157829;28;19913;-56
2022/01/26 10:41:44;;;;;;;;;;;-3.60;99.90;;;;;;4156591;28;19975;-57
2022/01/26 10:43:49;;;;;;;;;;;-3.70;99.90;;;;;;4158606;28;20051;-57
2022/01/26 10:47:54;;;;;;;;;;;-3.70;99.90;;;;;;4157564;28;20396;-50
2022/01/26 10:50:29;;;;;;;;;;;-3.60;99.90;;;;;;4156859;28;19913;-58
2022/01/26 10:52:35;;;;;;;;;;;-3.60;99.90;;;;;;4156247;28;19982;-58
2022/01/26 10:54:37;;;;;;;;;;;-3.70;99.90;;;;;;4154451;28;19921;-54
2022/01/26 10:56:39;;;;;;;;;;;-3.70;99.90;;;;;;4141290;28;19921;-53
2022/01/26 10:58:40;;;;;;;;;;;-3.60;99.90;;;;;;4157099;28;19959;-62
2022/01/26 11:00:41;;;;;;;;;;;-3.60;99.90;;;;;;4157747;28;20277;-57
2022/01/26 11:02:47;;;;;;;;;;;-3.50;99.90;;;;;;4157193;28;19913;-60
2022/01/26 11:04:48;;;;;;;;;;;-3.40;99.90;;;;;;4156674;28;20062;-60
2022/01/26 11:06:50;;;;;;;;;;;-3.40;99.90;;;;;;4155731;28;19913;-57
2022/01/26 11:08:51;;;;;;;;;;;-3.40;99.90;;;;;;4152589;28;20335;-54
2022/01/26 11:10:52;;;;;;;;;;;-3.30;99.90;;;;;;4155644;28;20331;-57
2022/01/26 11:12:53;;;;;;;;;;;-3.30;99.90;;;;;;4156860;28;19917;-55
2022/01/26 11:15:03;;;;;;;;;;;-3.30;99.90;;;;;;4155267;28;20540;-55
2022/01/26 11:17:04;;;;;;;;;;;-3.30;99.90;;;;;;4145968;28;20460;-59
2022/01/26 11:19:12;;;;;;;;;;;-3.30;99.90;;;;;;4157948;28;19989;-59
2022/01/26 11:21:24;;;;;;;;;;;-3.30;99.90;;;;;;4154027;28;19932;-57
2022/01/26 11:23:35;;;;;;;;;;;-3.30;99.90;;;;;;4156431;28;19983;-58
2022/01/26 11:25:43;;;;;;;;;;;-3.30;99.90;;;;;;4144731;28;19916;-58
2022/01/26 11:27:45;;;;;;;;;;;-3.30;99.90;;;;;;4145846;28;20420;-53
2022/01/26 11:29:49;;;;;;;;;;;-3.30;99.90;;;;;;4143757;28;19917;-56
2022/01/26 11:32:08;;;;;;;;;;;-3.20;99.90;;;;;;4156033;28;19983;-57
2022/01/26 11:34:11;;;;;;;;;;;-3.20;99.90;;;;;;4151453;28;19933;-58
2022/01/26 11:36:16;;;;;;;;;;;-3.20;99.90;;;;;;4156250;28;19988;-59
2022/01/26 11:45:17;;;;;;;;;;;-3.20;99.90;;;;;;4153428;28;19917;-56
2022/01/26 11:47:24;;;;;;;;;;;-3.20;99.90;;;;;;4152912;28;19933;-57
2022/01/26 11:49:46;;;;;;;;;;;-3.20;99.90;;;;;;4155417;28;19913;-59
2022/01/26 11:51:49;;;;;;;;;;;-3.20;99.90;;;;;;4156066;28;19989;-53
2022/01/26 11:53:50;;;;;;;;;;;-3.10;99.90;;;;;;4153313;28;20416;-59
2022/01/26 11:55:59;;;;;;;;;;;-3.10;99.90;;;;;;4154533;28;19967;-57
2022/01/26 11:58:06;;;;;;;;;;;-3.10;99.90;;;;;;4154280;28;19920;-56
2022/01/26 12:00:11;;;;;;;;;;;-3.10;99.90;;;;;;4154666;28;20767;-58
2022/01/26 12:02:33;;;;;;;;;;;-3.10;99.90;;;;;;4154781;28;19925;-57
2022/01/26 12:04:37;;;;;;;;;;;-3.00;99.90;;;;;;4154634;28;19991;-57
2022/01/26 12:06:48;;;;;;;;;;;-3.00;99.90;;;;;;4155247;28;19914;-56
2022/01/26 12:08:48;;;;;;;;;;;-2.90;99.90;;;;;;4154642;28;19967;-56
2022/01/26 12:10:50;;;;;;;;;;;-3.00;99.90;;;;;;4156287;28;20686;-62
2022/01/26 12:13:02;;;;;;;;;;;-3.00;99.90;;;;;;4156305;28;19921;-59
2022/01/26 12:15:04;;;;;;;;;;;-3.00;99.90;;;;;;4156690;28;20353;-58
2022/01/26 12:17:12;;;;;;;;;;;-3.00;99.90;;;;;;4154270;28;19917;-60
2022/01/26 12:37:53;;;;;;;;;;;-2.80;99.90;;;;;;4156344;28;19982;-61
2022/01/26 12:42:39;;;;;;;;;;;-2.80;99.90;;;;;;4155710;28;19948;-59
2022/01/26 12:44:39;;;;;;;;;;;-2.70;99.90;;;;;;4157103;28;19959;-54
2022/01/26 12:46:40;;;;;;;;;;;-2.70;99.90;;;;;;4155985;28;19913;-63
2022/01/26 12:48:46;;;;;;;;;;;-2.70;99.90;;;;;;4157007;28;20266;-58
2022/01/26 12:50:47;;;;;;;;;;;-2.70;99.90;;;;;;4155448;28;19917;-56
2022/01/26 12:52:50;;;;;;;;;;;-2.70;99.90;;;;;;4157200;28;19968;-57
2022/01/26 12:54:51;;;;;;;;;;;-2.70;99.90;;;;;;4156209;28;19928;-57
2022/01/26 12:57:01;;;;;;;;;;;-2.70;99.90;;;;;;4156987;28;20373;-61
2022/01/26 12:59:03;;;;;;;;;;;-2.70;99.90;;;;;;4155727;28;19963;-56
2022/01/26 13:01:06;;;;;;;;;;;-2.70;99.90;;;;;;4157281;28;20432;-60
2022/01/26 13:03:11;;;;;;;;;;;-2.70;99.90;;;;;;4156097;28;19933;-59
2022/01/26 13:05:14;;;;;;;;;;;-2.70;99.90;;;;;;4156471;28;19975;-58
2022/01/26 13:07:15;;;;;;;;;;;-2.80;99.90;;;;;;4156235;28;20408;-60
2022/01/26 13:09:25;;;;;;;;;;;-2.80;99.90;;;;;;4155632;28;20439;-56
2022/01/26 13:11:27;;;;;;;;;;;-2.70;99.90;;;;;;4156881;28;19915;-58
2022/01/26 13:13:32;;;;;;;;;;;-2.70;99.90;;;;;;4159829;28;20316;-59
2022/01/26 13:15:41;;;;;;;;;;;-2.80;99.90;;;;;;4159808;28;20407;-59
2022/01/26 13:17:49;;;;;;;;;;;-2.80;99.90;;;;;;4159284;28;19917;-58
2022/01/26 13:20:17;;;;;;;;;;;-2.80;99.90;;;;;;4158868;28;20289;-57
2022/01/26 13:24:52;;;;;;;;;;;-2.90;99.90;;;;;;4159043;28;19913;-63
2022/01/26 13:29:40;;;;;;;;;;;-2.90;99.90;;;;;;4126978;28;20064;-60
2022/01/26 13:32:08;;;;;;;;;;;-2.90;99.90;;;;;;4159844;28;19921;-60
2022/01/26 13:36:43;;;;;;;;;;;-2.80;99.90;;;;;;4159852;28;19909;-63
2022/01/26 13:39:15;;;;;;;;;;;-2.80;99.90;;;;;;4158691;28;19951;-56
2022/01/26 13:41:41;;;;;;;;;;;-2.80;99.90;;;;;;4159079;28;19918;-61
2022/01/26 13:46:10;;;;;;;;;;;-2.80;99.90;;;;;;4158809;28;19913;-59
2022/01/26 13:48:39;;;;;;;;;;;-2.80;99.90;;;;;;4158324;28;19979;-63
2022/01/26 13:52:42;;;;;;;;;;;-2.80;99.90;;;;;;4158919;28;19932;-62
2022/01/26 13:59:19;;;;;;;;;;;-2.80;99.90;;;;;;4157656;28;19921;-61
2022/01/26 14:01:20;;;;;;;;;;;-2.80;99.90;;;;;;4158659;28;19983;-61
2022/01/26 14:03:24;;;;;;;;;;;-2.80;99.90;;;;;;4158281;28;19917;-57
2022/01/26 14:05:25;;;;;;;;;;;-2.80;99.90;;;;;;4158661;28;19913;-63
2022/01/26 14:07:26;;;;;;;;;;;-2.80;99.90;;;;;;4158947;28;20191;-63
2022/01/26 14:09:27;;;;;;;;;;;-2.80;99.90;;;;;;4157556;28;20312;-57
2022/01/26 14:11:28;;;;;;;;;;;-2.80;99.90;;;;;;4158719;28;19992;-55
2022/01/26 14:13:29;;;;;;;;;;;-2.80;99.90;;;;;;4157529;28;19913;-62